createdAt,value
2017-02-11T00:00:54.592Z,0.73
2017-02-11T00:02:04.296Z,0.73
2017-02-11T00:03:13.596Z,0.78
2017-02-11T00:04:22.526Z,0.72
2017-02-11T00:05:32.431Z,0.73
2017-02-11T00:06:42.536Z,0.65
2017-02-11T00:07:51.834Z,0.62
2017-02-11T00:09:01.529Z,0.65
2017-02-11T00:10:11.230Z,0.6
2017-02-11T00:11:21.456Z,0.73
2017-02-11T00:12:31.563Z,0.66
2017-02-11T00:13:40.854Z,0.61
2017-02-11T00:14:50.148Z,0.7
2017-02-11T00:15:59.446Z,0.65
2017-02-11T00:17:08.637Z,0.6
2017-02-11T00:18:17.933Z,0.69
2017-02-11T00:19:27.633Z,0.76
2017-02-11T00:20:36.926Z,0.72
2017-02-11T00:21:46.217Z,0.72
2017-02-11T00:22:55.212Z,0.79
2017-02-11T00:24:04.512Z,0.78
2017-02-11T00:25:13.398Z,0.83
2017-02-11T00:26:23.095Z,0.79
2017-02-11T00:27:32.391Z,0.75
2017-02-11T00:28:42.196Z,0.75
2017-02-11T00:29:51.490Z,0.79
2017-02-11T00:31:00.378Z,0.76
2017-02-11T00:32:10.078Z,0.76
2017-02-11T00:33:19.775Z,0.75
2017-02-11T00:34:29.169Z,0.69
2017-02-11T00:35:38.053Z,0.65
2017-02-11T00:36:47.347Z,0.69
2017-02-11T00:37:56.647Z,0.68
2017-02-11T00:39:05.534Z,0.75
2017-02-11T00:40:14.520Z,0.7
2017-02-11T00:41:23.813Z,0.75
2017-02-11T00:42:33.515Z,0.75
2017-02-11T00:43:43.624Z,0.68
2017-02-11T00:44:52.926Z,0.61
2017-02-11T00:46:02.783Z,0.62
2017-02-11T00:47:12.487Z,0.6
2017-02-11T00:48:21.782Z,0.57
2017-02-11T00:49:30.667Z,0.58
2017-02-11T00:50:40.364Z,0.61
2017-02-11T00:51:49.708Z,0.68
2017-02-11T00:52:59.004Z,0.61
2017-02-11T00:54:08.299Z,0.58
2017-02-11T00:55:17.591Z,0.61
2017-02-11T00:56:26.897Z,0.6
2017-02-11T00:57:36.444Z,0.66
2017-02-11T00:58:46.558Z,0.68
2017-02-11T00:59:55.446Z,0.68
2017-02-11T01:01:05.155Z,0.66
2017-02-11T01:02:14.856Z,0.62
2017-02-11T01:03:24.197Z,0.66
2017-02-11T01:04:33.491Z,0.7
2017-02-11T01:05:43.192Z,0.58
2017-02-11T01:06:52.893Z,0.57
2017-02-11T01:08:02.214Z,0.58
2017-02-11T01:09:11.612Z,0.7
2017-02-11T01:10:21.314Z,0.62
2017-02-11T01:11:31.012Z,0.66
2017-02-11T01:12:40.305Z,0.66
2017-02-11T01:13:50.417Z,0.66
2017-02-11T01:14:59.814Z,0.62
2017-02-11T01:16:09.521Z,0.65
2017-02-11T01:17:18.818Z,0.62
2017-02-11T01:18:28.113Z,0.68
2017-02-11T01:19:37.824Z,0.6
2017-02-11T01:20:47.524Z,0.68
2017-02-11T01:21:57.637Z,0.66
2017-02-11T01:23:07.344Z,0.57
2017-02-11T01:24:16.642Z,0.65
2017-02-11T01:25:26.344Z,0.68
2017-02-11T01:26:35.233Z,0.61
2017-02-11T01:27:44.934Z,0.7
2017-02-11T01:28:54.229Z,0.61
2017-02-11T01:30:03.523Z,0.62
2017-02-11T01:31:13.638Z,0.62
2017-02-11T01:32:22.676Z,0.61
2017-02-11T01:33:31.564Z,0.62
2017-02-11T01:34:40.448Z,0.69
2017-02-11T01:35:49.745Z,0.66
2017-02-11T01:36:58.632Z,0.65
2017-02-11T01:38:08.889Z,0.62
2017-02-11T01:39:17.779Z,0.66
2017-02-11T01:40:26.666Z,0.62
2017-02-11T01:41:35.962Z,0.72
2017-02-11T01:42:45.665Z,0.66
2017-02-11T01:43:55.429Z,0.68
2017-02-11T01:45:05.136Z,0.7
2017-02-11T01:46:14.430Z,0.7
2017-02-11T01:47:23.319Z,0.69
2017-02-11T01:48:33.430Z,0.66
2017-02-11T01:49:43.025Z,0.65
2017-02-11T01:50:52.729Z,0.6
2017-02-11T01:52:01.617Z,0.61
2017-02-11T01:53:10.911Z,0.6
2017-02-11T01:54:20.213Z,0.68
2017-02-11T01:55:29.560Z,0.66
2017-02-11T01:56:39.265Z,0.69
2017-02-11T01:57:49.003Z,0.62
2017-02-11T01:58:58.298Z,0.58
2017-02-11T02:00:08.412Z,0.73
2017-02-11T02:01:17.549Z,0.61
2017-02-11T02:02:26.442Z,0.6
2017-02-11T02:03:36.147Z,0.6
2017-02-11T02:04:45.442Z,0.65
2017-02-11T02:05:55.150Z,0.66
2017-02-11T02:07:05.259Z,0.73
2017-02-11T02:08:14.961Z,0.68
2017-02-11T02:09:24.661Z,0.66
2017-02-11T02:10:34.770Z,0.69
2017-02-11T02:11:44.477Z,0.66
2017-02-11T02:12:54.274Z,0.76
2017-02-11T02:14:03.166Z,0.76
2017-02-11T02:15:12.463Z,0.76
2017-02-11T02:16:22.167Z,0.69
2017-02-11T02:17:31.464Z,0.66
2017-02-11T02:18:41.364Z,0.69
2017-02-11T02:19:51.074Z,0.72
2017-02-11T02:21:01.591Z,0.73
2017-02-11T02:22:10.500Z,0.68
2017-02-11T02:23:20.225Z,0.7
2017-02-11T02:24:29.727Z,0.69
2017-02-11T02:25:39.019Z,0.73
2017-02-11T02:26:49.142Z,0.73
2017-02-11T02:27:58.440Z,0.75
2017-02-11T02:29:08.146Z,0.73
2017-02-11T02:30:17.909Z,0.69
2017-02-11T02:31:26.800Z,0.66
2017-02-11T02:32:36.098Z,0.76
2017-02-11T02:33:45.813Z,0.7
2017-02-11T02:34:55.920Z,0.69
2017-02-11T02:36:04.860Z,0.69
2017-02-11T02:37:13.743Z,0.62
2017-02-11T02:38:23.042Z,0.7
2017-02-11T02:39:32.335Z,0.68
2017-02-11T02:40:42.036Z,0.65
2017-02-11T02:41:50.975Z,0.58
2017-02-11T02:43:00.274Z,0.62
2017-02-11T02:44:09.569Z,0.7
2017-02-11T02:45:18.864Z,0.62
2017-02-11T02:46:28.566Z,0.68
2017-02-11T02:47:38.267Z,0.66
2017-02-11T02:48:47.155Z,0.66
2017-02-11T02:49:56.858Z,0.66
2017-02-11T02:51:06.561Z,0.6
2017-02-11T02:52:15.857Z,0.68
2017-02-11T02:53:25.206Z,0.66
2017-02-11T02:54:34.905Z,0.68
2017-02-11T02:55:44.195Z,0.58
2017-02-11T02:56:53.895Z,0.65
2017-02-11T02:58:03.190Z,0.61
2017-02-11T02:59:13.710Z,0.6
2017-02-11T03:00:23.408Z,0.53
2017-02-11T03:01:33.515Z,0.69
2017-02-11T03:02:42.807Z,0.51
2017-02-11T03:03:52.508Z,0.57
2017-02-11T03:05:01.853Z,0.53
2017-02-11T03:06:11.144Z,0.65
2017-02-11T03:07:20.034Z,0.55
2017-02-11T03:08:29.334Z,0.55
2017-02-11T03:09:39.442Z,0.55
2017-02-11T03:10:49.552Z,0.61
2017-02-11T03:11:59.254Z,0.62
2017-02-11T03:13:08.959Z,0.55
2017-02-11T03:14:18.669Z,0.51
2017-02-11T03:15:28.781Z,0.61
2017-02-11T03:16:38.221Z,0.57
2017-02-11T03:17:47.111Z,0.66
2017-02-11T03:18:56.810Z,0.61
2017-02-11T03:20:06.921Z,0.62
2017-02-11T03:21:17.027Z,0.55
2017-02-11T03:22:26.619Z,0.61
2017-02-11T03:23:35.909Z,0.57
2017-02-11T03:24:45.616Z,0.65
2017-02-11T03:25:55.722Z,0.58
2017-02-11T03:27:05.014Z,0.58
2017-02-11T03:28:14.458Z,0.57
2017-02-11T03:29:23.750Z,0.55
2017-02-11T03:30:33.452Z,0.57
2017-02-11T03:31:43.150Z,0.53
2017-02-11T03:32:52.443Z,0.62
2017-02-11T03:34:01.402Z,0.57
2017-02-11T03:35:11.105Z,0.62
2017-02-11T03:36:19.992Z,0.61
2017-02-11T03:37:29.693Z,0.57
2017-02-11T03:38:39.000Z,0.58
2017-02-11T03:39:48.546Z,0.53
2017-02-11T03:40:57.837Z,0.6
2017-02-11T03:42:07.539Z,0.6
2017-02-11T03:43:17.651Z,0.53
2017-02-11T03:44:26.532Z,0.62
2017-02-11T03:45:36.944Z,0.66
2017-02-11T03:46:46.239Z,0.61
2017-02-11T03:47:55.531Z,0.65
2017-02-11T03:49:04.824Z,0.68
2017-02-11T03:50:14.119Z,0.57
2017-02-11T03:51:23.255Z,0.6
2017-02-11T03:52:32.548Z,0.61
2017-02-11T03:53:42.657Z,0.65
2017-02-11T03:54:51.545Z,0.57
2017-02-11T03:56:01.259Z,0.58
2017-02-11T03:57:10.653Z,0.65
2017-02-11T03:58:20.349Z,0.66
2017-02-11T03:59:30.048Z,0.66
2017-02-11T04:00:39.749Z,0.61
2017-02-11T04:01:49.045Z,0.72
2017-02-11T04:02:58.130Z,0.57
2017-02-11T04:04:07.832Z,0.53
2017-02-11T04:05:17.128Z,0.61
2017-02-11T04:06:26.012Z,0.61
2017-02-11T04:07:35.309Z,0.68
2017-02-11T04:08:44.802Z,0.61
2017-02-11T04:09:53.687Z,0.68
2017-02-11T04:11:03.023Z,0.62
2017-02-11T04:12:12.723Z,0.72
2017-02-11T04:13:22.015Z,0.58
2017-02-11T04:14:31.200Z,0.57
2017-02-11T04:15:40.899Z,0.68
2017-02-11T04:16:50.602Z,0.65
2017-02-11T04:17:59.491Z,0.5
2017-02-11T04:19:09.190Z,0.55
2017-02-11T04:20:18.998Z,0.66
2017-02-11T04:21:28.697Z,0.65
2017-02-11T04:22:38.398Z,0.62
2017-02-11T04:23:48.101Z,0.62
2017-02-11T04:24:57.802Z,0.51
2017-02-11T04:26:07.299Z,0.55
2017-02-11T04:27:17.003Z,0.58
2017-02-11T04:28:26.705Z,0.58
2017-02-11T04:29:36.408Z,0.5
2017-02-11T04:30:45.700Z,0.62
2017-02-11T04:31:55.243Z,0.66
2017-02-11T04:33:04.534Z,0.61
2017-02-11T04:34:13.825Z,0.61
2017-02-11T04:35:23.119Z,0.65
2017-02-11T04:36:32.007Z,0.58
2017-02-11T04:37:42.269Z,0.62
2017-02-11T04:38:51.156Z,0.6
2017-02-11T04:40:00.449Z,0.5
2017-02-11T04:41:10.143Z,0.55
2017-02-11T04:42:19.844Z,0.53
2017-02-11T04:43:29.338Z,0.57
2017-02-11T04:44:39.447Z,0.51
2017-02-11T04:45:49.559Z,0.53
2017-02-11T04:46:59.264Z,0.51
2017-02-11T04:48:09.400Z,0.47
2017-02-11T04:49:18.340Z,0.44
2017-02-11T04:50:27.638Z,0.46
2017-02-11T04:51:37.338Z,0.46
2017-02-11T04:52:46.635Z,0.53
2017-02-11T04:53:56.333Z,0.61
2017-02-11T04:55:05.674Z,0.49
2017-02-11T04:56:14.576Z,0.51
2017-02-11T04:57:24.278Z,0.51
2017-02-11T04:58:33.576Z,0.46
2017-02-11T04:59:42.872Z,0.57
2017-02-11T05:00:51.912Z,0.42
2017-02-11T05:02:01.211Z,0.41
2017-02-11T05:03:10.917Z,0.39
2017-02-11T05:04:20.621Z,0.39
2017-02-11T05:05:29.922Z,0.46
2017-02-11T05:06:39.313Z,0.53
2017-02-11T05:07:49.007Z,0.41
2017-02-11T05:08:58.708Z,0.39
2017-02-11T05:10:08.412Z,0.41
2017-02-11T05:11:18.523Z,0.47
2017-02-11T05:12:27.412Z,0.42
2017-02-11T05:13:36.707Z,0.44
2017-02-11T05:14:46.818Z,0.46
2017-02-11T05:15:56.108Z,0.46
2017-02-11T05:17:05.808Z,0.5
2017-02-11T05:18:15.102Z,0.39
2017-02-11T05:19:24.394Z,0.5
2017-02-11T05:20:33.690Z,0.41
2017-02-11T05:21:42.984Z,0.41
2017-02-11T05:22:52.686Z,0.51
2017-02-11T05:24:02.700Z,0.5
2017-02-11T05:25:12.001Z,0.39
2017-02-11T05:26:21.706Z,0.53
2017-02-11T05:27:31.415Z,0.39
2017-02-11T05:28:41.118Z,0.44
2017-02-11T05:29:50.921Z,0.57
2017-02-11T05:31:00.215Z,0.49
2017-02-11T05:32:09.508Z,0.6
2017-02-11T05:33:18.801Z,0.5
2017-02-11T05:34:28.099Z,0.51
2017-02-11T05:35:38.085Z,0.51
2017-02-11T05:36:47.387Z,0.53
2017-02-11T05:37:56.680Z,0.57
2017-02-11T05:39:05.575Z,0.57
2017-02-11T05:40:15.275Z,0.57
2017-02-11T05:41:24.411Z,0.42
2017-02-11T05:42:33.299Z,0.51
2017-02-11T05:43:42.592Z,0.46
2017-02-11T05:44:51.475Z,0.39
2017-02-11T05:46:00.768Z,0.44
2017-02-11T05:47:10.671Z,0.51
2017-02-11T05:48:20.779Z,0.44
2017-02-11T05:49:30.071Z,0.44
2017-02-11T05:50:39.787Z,0.41
2017-02-11T05:51:49.904Z,0.42
2017-02-11T05:52:59.353Z,0.47
2017-02-11T05:54:09.054Z,0.51
2017-02-11T05:55:18.350Z,0.57
2017-02-11T05:56:28.063Z,0.61
2017-02-11T05:57:37.761Z,0.57
2017-02-11T05:58:47.511Z,0.51
2017-02-11T05:59:56.395Z,0.57
2017-02-11T06:01:05.289Z,0.58
2017-02-11T06:02:14.584Z,0.53
2017-02-11T06:03:24.289Z,0.53
2017-02-11T06:04:34.599Z,0.58
2017-02-11T06:05:44.303Z,0.46
2017-02-11T06:06:53.190Z,0.47
2017-02-11T06:08:02.892Z,0.5
2017-02-11T06:09:12.184Z,0.55
2017-02-11T06:10:21.479Z,0.44
2017-02-11T06:11:31.650Z,0.47
2017-02-11T06:12:40.949Z,0.44
2017-02-11T06:13:51.059Z,0.5
2017-02-11T06:15:01.168Z,0.41
2017-02-11T06:16:10.100Z,0.44
2017-02-11T06:17:19.392Z,0.42
2017-02-11T06:18:28.687Z,0.47
2017-02-11T06:19:37.983Z,0.42
2017-02-11T06:20:47.281Z,0.51
2017-02-11T06:21:56.574Z,0.53
2017-02-11T06:23:05.872Z,0.42
2017-02-11T06:24:15.163Z,0.38
2017-02-11T06:25:24.458Z,0.42
2017-02-11T06:26:34.563Z,0.44
2017-02-11T06:27:43.854Z,0.44
2017-02-11T06:28:53.553Z,0.38
2017-02-11T06:30:03.255Z,0.42
2017-02-11T06:31:12.550Z,0.36
2017-02-11T06:32:22.256Z,0.38
2017-02-11T06:33:32.009Z,0.39
2017-02-11T06:34:40.897Z,0.33
2017-02-11T06:35:49.783Z,0.33
2017-02-11T06:36:59.480Z,0.33
2017-02-11T06:38:08.373Z,0.26
2017-02-11T06:39:17.309Z,0.28
2017-02-11T06:40:27.018Z,0.28
2017-02-11T06:41:35.901Z,0.2
2017-02-11T06:42:45.226Z,0.18
2017-02-11T06:43:54.116Z,0.21
2017-02-11T06:45:03.408Z,0.18
2017-02-11T06:46:12.293Z,0.13
2017-02-11T06:47:21.584Z,0.2
2017-02-11T06:48:30.873Z,0.14
2017-02-11T06:49:40.168Z,0.17
2017-02-11T06:50:49.762Z,0.15
2017-02-11T06:51:59.872Z,0.2
2017-02-11T06:53:08.762Z,0.14
2017-02-11T06:54:18.465Z,0.13
2017-02-11T06:55:27.761Z,0.13
2017-02-11T06:56:37.976Z,0.1
2017-02-11T06:57:46.864Z,0.14
2017-02-11T06:58:56.569Z,0.14
2017-02-11T07:00:05.867Z,0.14
2017-02-11T07:01:15.567Z,0.18
2017-02-11T07:02:25.783Z,0.14
2017-02-11T07:03:35.080Z,0.17
2017-02-11T07:04:44.787Z,0.17
2017-02-11T07:05:54.079Z,0.18
2017-02-11T07:07:02.964Z,0.11
2017-02-11T07:08:12.508Z,0.11
2017-02-11T07:09:22.208Z,0.17
2017-02-11T07:10:31.137Z,0.2
2017-02-11T07:11:40.838Z,0.18
2017-02-11T07:12:50.130Z,0.18
2017-02-11T07:13:59.575Z,0.28
2017-02-11T07:15:09.276Z,0.21
2017-02-11T07:16:18.161Z,0.21
2017-02-11T07:17:27.461Z,0.18
2017-02-11T07:18:36.753Z,0.2
2017-02-11T07:19:46.147Z,0.23
2017-02-11T07:20:55.440Z,0.23
2017-02-11T07:22:04.325Z,0.23
2017-02-11T07:23:13.208Z,0.32
2017-02-11T07:24:22.913Z,0.28
2017-02-11T07:25:32.617Z,0.24
2017-02-11T07:26:41.499Z,0.23
2017-02-11T07:27:50.381Z,0.26
2017-02-11T07:28:59.677Z,0.23
2017-02-11T07:30:09.372Z,0.2
2017-02-11T07:31:18.865Z,0.2
2017-02-11T07:32:27.749Z,0.21
2017-02-11T07:33:37.454Z,0.2
2017-02-11T07:34:46.748Z,0.24
2017-02-11T07:35:56.041Z,0.2
2017-02-11T07:37:06.203Z,0.17
2017-02-11T07:38:15.494Z,0.24
2017-02-11T07:39:25.197Z,0.17
2017-02-11T07:40:35.306Z,0.24
2017-02-11T07:41:44.596Z,0.18
2017-02-11T07:42:54.701Z,0.24
2017-02-11T07:44:03.999Z,0.17
2017-02-11T07:45:13.291Z,0.14
2017-02-11T07:46:22.590Z,0.15
2017-02-11T07:47:32.291Z,0.15
2017-02-11T07:48:42.043Z,0.2
2017-02-11T07:49:50.930Z,0.24
2017-02-11T07:51:01.038Z,0.2
2017-02-11T07:52:09.926Z,0.17
2017-02-11T07:53:20.037Z,0.28
2017-02-11T07:54:29.894Z,0.26
2017-02-11T07:55:39.593Z,0.24
2017-02-11T07:56:49.294Z,0.29
2017-02-11T07:57:58.993Z,0.32
2017-02-11T07:59:08.697Z,0.28
2017-02-11T08:00:17.628Z,0.29
2017-02-11T08:01:26.923Z,0.33
2017-02-11T08:02:35.805Z,0.32
2017-02-11T08:03:45.502Z,0.39
2017-02-11T08:04:54.386Z,0.46
2017-02-11T08:06:03.883Z,0.38
2017-02-11T08:07:13.175Z,0.36
2017-02-11T08:08:22.066Z,0.38
2017-02-11T08:09:31.365Z,0.39
2017-02-11T08:10:41.479Z,0.38
2017-02-11T08:11:50.778Z,0.33
2017-02-11T08:12:59.668Z,0.39
2017-02-11T08:14:09.372Z,0.39
2017-02-11T08:15:19.073Z,0.42
2017-02-11T08:16:28.363Z,0.47
2017-02-11T08:17:37.909Z,0.42
2017-02-11T08:18:48.020Z,0.5
2017-02-11T08:19:57.315Z,0.39
2017-02-11T08:21:06.612Z,0.41
2017-02-11T08:22:15.524Z,0.58
2017-02-11T08:23:25.281Z,0.44
2017-02-11T08:24:34.996Z,0.5
2017-02-11T08:25:44.291Z,0.55
2017-02-11T08:26:53.586Z,0.58
2017-02-11T08:28:02.878Z,0.57
2017-02-11T08:29:11.813Z,0.58
2017-02-11T08:30:21.111Z,0.58
2017-02-11T08:31:30.814Z,0.61
2017-02-11T08:32:40.115Z,0.65
2017-02-11T08:33:49.416Z,0.73
2017-02-11T08:34:58.454Z,0.75
2017-02-11T08:36:07.752Z,0.7
2017-02-11T08:37:16.652Z,0.7
2017-02-11T08:38:26.388Z,0.7
2017-02-11T08:39:35.683Z,0.66
2017-02-11T08:40:44.981Z,0.69
2017-02-11T08:41:54.722Z,0.72
2017-02-11T08:43:04.018Z,0.75
2017-02-11T08:44:13.368Z,0.75
2017-02-11T08:45:22.456Z,0.76
2017-02-11T08:46:32.160Z,0.75
2017-02-11T08:47:41.047Z,0.75
2017-02-11T08:48:50.748Z,0.78
2017-02-11T08:50:00.051Z,0.83
2017-02-11T08:51:10.160Z,0.8
2017-02-11T08:52:19.900Z,0.84
2017-02-11T08:53:29.194Z,0.79
2017-02-11T08:54:38.494Z,0.84
2017-02-11T08:55:48.602Z,0.78
2017-02-11T08:56:57.486Z,0.86
2017-02-11T08:58:07.191Z,0.78
2017-02-11T08:59:16.486Z,0.9
2017-02-11T09:00:25.816Z,0.93
2017-02-11T09:01:35.114Z,0.88
2017-02-11T09:02:43.997Z,0.88
2017-02-11T09:03:53.295Z,0.96
2017-02-11T09:05:02.594Z,0.98
2017-02-11T09:06:11.629Z,1.09
2017-02-11T09:07:21.741Z,1.05
2017-02-11T09:08:30.664Z,1
2017-02-11T09:09:39.962Z,1.11
2017-02-11T09:10:49.705Z,1.05
2017-02-11T09:11:59.003Z,1.05
2017-02-11T09:13:07.895Z,1.2
2017-02-11T09:14:17.188Z,1.15
2017-02-11T09:15:26.079Z,1.23
2017-02-11T09:16:35.376Z,1.2
2017-02-11T09:17:45.489Z,1.15
2017-02-11T09:18:55.598Z,1.2
2017-02-11T09:20:05.314Z,1.15
2017-02-11T09:21:14.606Z,1.22
2017-02-11T09:22:24.721Z,1.23
2017-02-11T09:23:34.066Z,1.23
2017-02-11T09:24:44.175Z,1.24
2017-02-11T09:25:53.879Z,1.29
2017-02-11T09:27:03.584Z,1.24
2017-02-11T09:28:12.883Z,1.23
2017-02-11T09:29:22.275Z,1.23
2017-02-11T09:30:31.157Z,1.29
2017-02-11T09:31:40.040Z,1.33
2017-02-11T09:32:49.333Z,1.22
2017-02-11T09:33:59.851Z,1.34
2017-02-11T09:35:09.296Z,1.32
2017-02-11T09:36:18.589Z,1.41
2017-02-11T09:37:28.290Z,1.44
2017-02-11T09:38:37.590Z,1.42
2017-02-11T09:39:47.306Z,1.42
2017-02-11T09:40:57.618Z,1.45
2017-02-11T09:42:06.511Z,1.52
2017-02-11T09:43:16.220Z,1.5
2017-02-11T09:44:25.514Z,1.48
2017-02-11T09:45:35.223Z,1.55
2017-02-11T09:46:45.336Z,1.62
2017-02-11T09:47:54.224Z,1.65
2017-02-11T09:49:03.930Z,1.6
2017-02-11T09:50:13.230Z,1.66
2017-02-11T09:51:22.544Z,1.66
2017-02-11T09:52:31.993Z,1.7
2017-02-11T09:53:41.694Z,1.66
2017-02-11T09:54:50.991Z,1.76
2017-02-11T09:56:00.285Z,1.66
2017-02-11T09:57:09.990Z,1.66
2017-02-11T09:58:18.880Z,1.73
2017-02-11T09:59:56.432Z,1.9
2017-02-11T10:01:05.727Z,1.99
2017-02-11T10:02:15.446Z,1.93
2017-02-11T10:03:25.150Z,2.05
2017-02-11T10:04:34.859Z,2.02
2017-02-11T10:05:43.748Z,2.06
2017-02-11T10:06:53.454Z,1.98
2017-02-11T10:08:02.755Z,2.05
2017-02-11T10:09:11.643Z,1.88
2017-02-11T10:10:20.531Z,2.02
2017-02-11T10:11:30.229Z,2.03
2017-02-11T10:12:39.931Z,2
2017-02-11T10:13:49.634Z,1.95
2017-02-11T10:14:59.758Z,1.93
2017-02-11T10:16:09.459Z,1.86
2017-02-11T10:17:18.756Z,1.79
2017-02-11T10:18:27.644Z,1.7
2017-02-11T10:19:36.938Z,1.65
2017-02-11T10:20:46.233Z,1.66
2017-02-11T10:21:55.529Z,1.69
2017-02-11T10:23:05.641Z,1.62
2017-02-11T10:24:15.192Z,1.62
2017-02-11T10:25:25.302Z,1.52
2017-02-11T10:26:35.002Z,1.51
2017-02-11T10:27:44.703Z,1.5
2017-02-11T10:28:54.148Z,1.48
2017-02-11T10:30:03.446Z,1.47
2017-02-11T10:31:13.150Z,1.42
2017-02-11T10:32:22.445Z,1.48
2017-02-11T10:33:31.737Z,1.48
2017-02-11T10:34:41.588Z,1.48
2017-02-11T10:35:50.475Z,1.45
2017-02-11T10:37:01.003Z,1.47
2017-02-11T10:38:10.708Z,1.51
2017-02-11T10:39:19.595Z,1.48
2017-02-11T10:40:28.762Z,1.47
2017-02-11T10:41:38.059Z,1.4
2017-02-11T10:42:47.356Z,1.47
2017-02-11T10:43:57.059Z,1.41
2017-02-11T10:45:06.775Z,1.47
2017-02-11T10:46:16.222Z,1.47
2017-02-11T10:47:25.519Z,1.42
2017-02-11T10:48:34.819Z,1.47
2017-02-11T10:49:44.116Z,1.45
2017-02-11T10:50:53.002Z,1.42
2017-02-11T10:52:01.949Z,1.5
2017-02-11T10:53:11.651Z,1.59
2017-02-11T10:54:21.361Z,1.5
2017-02-11T10:55:30.656Z,1.59
2017-02-11T10:56:40.360Z,1.65
2017-02-11T10:57:50.261Z,1.7
2017-02-11T10:59:00.380Z,1.68
2017-02-11T11:00:09.674Z,1.68
2017-02-11T11:01:19.374Z,1.7
2017-02-11T11:02:28.266Z,1.63
2017-02-11T11:03:38.016Z,1.77
2017-02-11T11:04:47.328Z,1.76
2017-02-11T11:05:56.215Z,1.77
2017-02-11T11:07:05.511Z,1.73
2017-02-11T11:08:14.400Z,1.73
2017-02-11T11:09:24.151Z,1.79
2017-02-11T11:10:33.858Z,1.66
2017-02-11T11:11:43.568Z,1.84
2017-02-11T11:12:52.866Z,1.83
2017-02-11T11:14:03.414Z,1.76
2017-02-11T11:15:13.118Z,1.8
2017-02-11T11:16:22.817Z,1.8
2017-02-11T11:17:33.332Z,1.86
2017-02-11T11:18:43.446Z,1.99
2017-02-11T11:19:52.741Z,1.91
2017-02-11T11:21:02.035Z,2.02
2017-02-11T11:22:10.923Z,2.06
2017-02-11T11:23:20.223Z,2.05
2017-02-11T11:24:29.931Z,2.05
2017-02-11T11:25:40.043Z,2.05
2017-02-11T11:26:50.152Z,2.06
2017-02-11T11:28:00.265Z,2.07
2017-02-11T11:29:09.570Z,2.14
2017-02-11T11:30:18.457Z,2.16
2017-02-11T11:31:28.160Z,2.24
2017-02-11T11:32:37.865Z,2.14
2017-02-11T11:33:47.166Z,2.12
2017-02-11T11:34:56.871Z,2.17
2017-02-11T11:36:05.759Z,2.14
2017-02-11T11:37:15.055Z,2.12
2017-02-11T11:38:23.943Z,2.17
2017-02-11T11:39:33.240Z,2.21
2017-02-11T11:40:42.785Z,2.2
2017-02-11T11:41:51.673Z,2.2
2017-02-11T11:43:01.378Z,2.23
2017-02-11T11:44:11.086Z,2.3
2017-02-11T11:45:20.383Z,2.36
2017-02-11T11:46:29.686Z,2.3
2017-02-11T11:47:38.981Z,2.3
2017-02-11T11:48:49.474Z,2.3
2017-02-11T11:50:00.090Z,2.38
2017-02-11T11:51:09.026Z,2.43
2017-02-11T11:52:19.041Z,2.3
2017-02-11T11:53:29.161Z,2.27
2017-02-11T11:54:38.520Z,2.31
2017-02-11T11:55:48.238Z,2.27
2017-02-11T11:56:57.542Z,2.3
2017-02-11T11:58:06.741Z,2.25
2017-02-11T11:59:15.643Z,2.31
2017-02-11T12:00:24.541Z,2.25
2017-02-11T12:01:33.857Z,2.31
2017-02-11T12:02:43.165Z,2.35
2017-02-11T12:03:52.161Z,2.43
2017-02-11T12:05:01.465Z,2.35
2017-02-11T12:06:10.364Z,2.34
2017-02-11T12:07:20.077Z,2.27
2017-02-11T12:08:29.384Z,2.3
2017-02-11T12:09:38.741Z,2.28
2017-02-11T12:10:48.459Z,2.28
2017-02-11T12:11:58.176Z,2.35
2017-02-11T12:13:07.486Z,2.25
2017-02-11T12:14:16.385Z,2.18
2017-02-11T12:15:25.434Z,2.18
2017-02-11T12:16:34.759Z,2.21
2017-02-11T12:17:44.476Z,2.23
2017-02-11T12:18:54.194Z,2.18
2017-02-11T12:20:03.087Z,2.18
2017-02-11T12:21:12.025Z,2.18
2017-02-11T12:22:22.135Z,1.99
2017-02-11T12:23:31.434Z,1.99
2017-02-11T12:24:40.778Z,2.02
2017-02-11T12:25:50.074Z,2.05
2017-02-11T12:26:59.014Z,1.86
2017-02-11T12:28:09.130Z,1.88
2017-02-11T12:29:18.425Z,1.8
2017-02-11T12:30:27.726Z,1.77
2017-02-11T12:31:37.429Z,1.73
2017-02-11T12:32:47.635Z,1.73
2017-02-11T12:33:56.931Z,1.66
2017-02-11T12:35:06.633Z,1.66
2017-02-11T12:36:16.334Z,1.65
2017-02-11T12:37:25.226Z,1.66
2017-02-11T12:38:34.982Z,1.7
2017-02-11T12:39:43.871Z,1.63
2017-02-11T12:40:53.981Z,1.59
2017-02-11T12:42:02.869Z,1.55
2017-02-11T12:43:11.762Z,1.55
2017-02-11T12:44:21.401Z,1.58
2017-02-11T12:45:30.695Z,1.58
2017-02-11T12:46:39.581Z,1.6
2017-02-11T12:47:48.878Z,1.63
2017-02-11T12:48:58.589Z,1.59
2017-02-11T12:50:08.317Z,1.55
2017-02-11T12:51:17.614Z,1.69
2017-02-11T12:52:27.320Z,1.6
2017-02-11T12:53:37.023Z,1.7
2017-02-11T12:54:45.930Z,1.7
2017-02-11T12:55:55.328Z,1.66
2017-02-11T12:57:04.215Z,1.69
2017-02-11T12:58:13.512Z,1.83
2017-02-11T12:59:22.810Z,1.77
2017-02-11T13:00:33.329Z,1.79
2017-02-11T13:01:43.182Z,1.76
2017-02-11T13:02:52.476Z,1.81
2017-02-11T13:04:01.772Z,1.76
2017-02-11T13:05:10.660Z,1.87
2017-02-11T13:06:19.547Z,2
2017-02-11T13:07:29.155Z,1.9
2017-02-11T13:08:38.450Z,1.99
2017-02-11T13:09:47.339Z,1.93
2017-02-11T13:10:56.698Z,2.09
2017-02-11T13:12:06.004Z,2.09
2017-02-11T13:13:15.306Z,2.03
2017-02-11T13:14:25.420Z,2.02
2017-02-11T13:15:34.306Z,2.03
2017-02-11T13:16:43.200Z,2.1
2017-02-11T13:17:53.328Z,2.12
2017-02-11T13:19:03.483Z,2.1
2017-02-11T13:20:12.376Z,2.1
2017-02-11T13:21:23.074Z,2.14
2017-02-11T13:22:31.992Z,2.24
2017-02-11T13:23:40.889Z,2.24
2017-02-11T13:24:50.600Z,2.3
2017-02-11T13:26:00.332Z,2.24
2017-02-11T13:27:09.628Z,2.27
2017-02-11T13:28:19.739Z,2.28
2017-02-11T13:29:29.899Z,2.36
2017-02-11T13:30:38.793Z,2.27
2017-02-11T13:31:48.087Z,2.27
2017-02-11T13:32:56.977Z,2.27
2017-02-11T13:34:07.087Z,2.2
2017-02-11T13:35:15.977Z,2.21
2017-02-11T13:36:25.017Z,2.14
2017-02-11T13:37:33.904Z,2.07
2017-02-11T13:38:43.205Z,2.03
2017-02-11T13:39:52.908Z,2.06
2017-02-11T13:41:02.620Z,2.05
2017-02-11T13:42:12.526Z,1.98
2017-02-11T13:43:21.412Z,1.99
2017-02-11T13:44:31.117Z,1.86
2017-02-11T13:45:41.230Z,1.77
2017-02-11T13:46:50.938Z,1.76
2017-02-11T13:48:00.792Z,1.76
2017-02-11T13:49:10.088Z,1.68
2017-02-11T13:50:19.831Z,1.58
2017-02-11T13:51:29.128Z,1.58
2017-02-11T13:52:38.444Z,1.48
2017-02-11T13:53:48.254Z,1.48
2017-02-11T13:54:58.383Z,1.51
2017-02-11T13:56:07.686Z,1.37
2017-02-11T13:57:16.990Z,1.37
2017-02-11T13:58:26.695Z,1.42
2017-02-11T13:59:36.549Z,1.4
2017-02-11T14:00:45.869Z,1.42
2017-02-11T14:01:55.574Z,1.4
2017-02-11T14:03:04.869Z,1.37
2017-02-11T14:04:14.202Z,1.42
2017-02-11T14:05:23.695Z,1.42
2017-02-11T14:06:32.583Z,1.34
2017-02-11T14:07:43.098Z,1.24
2017-02-11T14:08:53.206Z,1.32
2017-02-11T14:10:03.320Z,1.32
2017-02-11T14:11:13.123Z,1.26
2017-02-11T14:12:22.416Z,1.27
2017-02-11T14:13:31.303Z,1.26
2017-02-11T14:14:41.012Z,1.29
2017-02-11T14:15:51.126Z,1.22
2017-02-11T14:17:00.524Z,1.3
2017-02-11T14:18:09.822Z,1.16
2017-02-11T14:19:19.123Z,1.33
2017-02-11T14:20:28.415Z,1.22
2017-02-11T14:21:37.708Z,1.24
2017-02-11T14:22:47.051Z,1.2
2017-02-11T14:23:56.347Z,1.18
2017-02-11T14:25:05.649Z,1.15
2017-02-11T14:26:15.767Z,1.2
2017-02-11T14:27:25.062Z,1.12
2017-02-11T14:28:34.607Z,1.2
2017-02-11T14:29:43.904Z,1.2
2017-02-11T14:30:52.798Z,1.12
2017-02-11T14:32:02.500Z,1.26
2017-02-11T14:33:11.817Z,1.18
2017-02-11T14:34:21.322Z,1.16
2017-02-11T14:35:31.438Z,1.2
2017-02-11T14:36:41.549Z,1.16
2017-02-11T14:37:51.659Z,1.14
2017-02-11T14:39:01.772Z,1.11
2017-02-11T14:40:10.759Z,1.11
2017-02-11T14:41:19.646Z,1.12
2017-02-11T14:42:29.348Z,1.11
2017-02-11T14:43:38.642Z,1.09
2017-02-11T14:44:47.937Z,1.09
2017-02-11T14:45:57.234Z,1.11
2017-02-11T14:47:06.940Z,1.12
2017-02-11T14:48:16.239Z,1.11
2017-02-11T14:49:25.131Z,1.12
2017-02-11T14:50:34.425Z,1.05
2017-02-11T14:51:44.464Z,1.08
2017-02-11T14:52:53.761Z,1.05
2017-02-11T14:54:03.475Z,1.11
2017-02-11T14:55:13.181Z,1.11
2017-02-11T14:56:22.074Z,1.15
2017-02-11T14:57:31.477Z,1.05
2017-02-11T14:58:40.774Z,1.04
2017-02-11T14:59:50.070Z,1.08
2017-02-11T15:00:59.371Z,1.14
2017-02-11T15:02:08.265Z,1.22
2017-02-11T15:03:17.746Z,1.16
2017-02-11T15:04:27.035Z,1.24
2017-02-11T15:05:37.148Z,1.15
2017-02-11T15:06:46.079Z,1.3
2017-02-11T15:07:56.596Z,1.27
2017-02-11T15:09:06.194Z,1.27
2017-02-11T15:10:15.081Z,1.26
2017-02-11T15:11:24.786Z,1.3
2017-02-11T15:12:33.679Z,1.3
2017-02-11T15:13:43.385Z,1.24
2017-02-11T15:14:53.139Z,1.32
2017-02-11T15:16:02.439Z,1.27
2017-02-11T15:17:12.138Z,1.27
2017-02-11T15:18:21.437Z,1.27
2017-02-11T15:19:30.732Z,1.32
2017-02-11T15:20:40.642Z,1.32
2017-02-11T15:21:50.345Z,1.3
2017-02-11T15:23:00.862Z,1.27
2017-02-11T15:24:10.570Z,1.3
2017-02-11T15:25:19.868Z,1.34
2017-02-11T15:26:29.266Z,1.22
2017-02-11T15:27:38.565Z,1.32
2017-02-11T15:28:48.266Z,1.18
2017-02-11T15:29:58.380Z,1.12